METAR UND TAF INFORMATION
LTFM 192050Z 26003KT CAVOK 12/08 Q1019

 FLUGHAFENKARTE

 RUNWAY INFORMATION

 AIRPORT FREQUENCIES

 AIRPORT NEAR NAVIGATION AIDS